sensor_id;sensor_type;location;lat;lon;timestamp;P1;durP1;ratioP1;P2;durP2;ratioP2
65092;SDS011;52025;50.288;2.794;2023-06-14T05:16:58;11.02;;;6.68;;
65092;SDS011;52025;50.288;2.794;2023-06-14T05:19:24;9.70;;;5.78;;
65092;SDS011;52025;50.288;2.794;2023-06-14T05:21:55;11.73;;;6.22;;
65092;SDS011;52025;50.288;2.794;2023-06-14T05:24:20;11.73;;;5.97;;
65092;SDS011;52025;50.288;2.794;2023-06-14T05:26:46;11.40;;;5.65;;
65092;SDS011;52025;50.288;2.794;2023-06-14T05:29:14;11.88;;;4.80;;
65092;SDS011;52025;50.288;2.794;2023-06-14T05:31:42;13.32;;;5.93;;
65092;SDS011;52025;50.288;2.794;2023-06-14T05:34:07;15.60;;;6.70;;
65092;SDS011;52025;50.288;2.794;2023-06-14T05:36:32;13.80;;;5.82;;
65092;SDS011;52025;50.288;2.794;2023-06-14T05:39:02;10.77;;;5.55;;
65092;SDS011;52025;50.288;2.794;2023-06-14T05:41:28;9.05;;;4.70;;
65092;SDS011;52025;50.288;2.794;2023-06-14T05:43:54;12.35;;;5.28;;
65092;SDS011;52025;50.288;2.794;2023-06-14T05:46:22;13.68;;;6.50;;
65092;SDS011;52025;50.288;2.794;2023-06-14T05:48:50;9.82;;;5.95;;
65092;SDS011;52025;50.288;2.794;2023-06-14T05:51:15;12.85;;;6.10;;
65092;SDS011;52025;50.288;2.794;2023-06-14T05:53:44;11.45;;;6.60;;
65092;SDS011;52025;50.288;2.794;2023-06-14T05:56:09;8.52;;;5.47;;
65092;SDS011;52025;50.288;2.794;2023-06-14T05:58:34;8.10;;;4.50;;
65092;SDS011;52025;50.288;2.794;2023-06-14T06:01:00;5.90;;;3.35;;
65092;SDS011;52025;50.288;2.794;2023-06-14T06:03:26;8.60;;;4.15;;
65092;SDS011;52025;50.288;2.794;2023-06-14T06:05:54;9.57;;;4.85;;
65092;SDS011;52025;50.288;2.794;2023-06-14T06:08:19;9.10;;;4.30;;
65092;SDS011;52025;50.288;2.794;2023-06-14T06:10:45;8.68;;;5.00;;
65092;SDS011;52025;50.288;2.794;2023-06-14T06:16:17;14.82;;;5.45;;
65092;SDS011;52025;50.288;2.794;2023-06-14T06:18:42;10.65;;;4.63;;
65092;SDS011;52025;50.288;2.794;2023-06-14T06:21:10;11.32;;;5.40;;
65092;SDS011;52025;50.288;2.794;2023-06-14T06:23:35;12.77;;;5.40;;
65092;SDS011;52025;50.288;2.794;2023-06-14T06:26:00;9.02;;;4.60;;
65092;SDS011;52025;50.288;2.794;2023-06-14T06:28:26;7.13;;;4.47;;
65092;SDS011;52025;50.288;2.794;2023-06-14T06:30:51;7.05;;;3.97;;
65092;SDS011;52025;50.288;2.794;2023-06-14T06:33:19;7.22;;;3.42;;
65092;SDS011;52025;50.288;2.794;2023-06-14T06:35:44;8.30;;;3.97;;
65092;SDS011;52025;50.288;2.794;2023-06-14T06:38:10;9.95;;;3.55;;
65092;SDS011;52025;50.288;2.794;2023-06-14T06:40:35;8.52;;;5.25;;
65092;SDS011;52025;50.288;2.794;2023-06-14T06:43:01;16.17;;;6.95;;
65092;SDS011;52025;50.288;2.794;2023-06-14T06:45:27;7.72;;;4.07;;
65092;SDS011;52025;50.288;2.794;2023-06-14T06:47:52;6.95;;;3.97;;
65092;SDS011;52025;50.288;2.794;2023-06-14T06:50:18;10.88;;;4.63;;
65092;SDS011;52025;50.288;2.794;2023-06-14T06:52:44;9.02;;;4.45;;
65092;SDS011;52025;50.288;2.794;2023-06-14T06:55:10;5.18;;;3.13;;
65092;SDS011;52025;50.288;2.794;2023-06-14T06:57:36;12.73;;;4.70;;
65092;SDS011;52025;50.288;2.794;2023-06-14T07:00:01;14.50;;;6.53;;
65092;SDS011;52025;50.288;2.794;2023-06-14T07:02:30;10.05;;;5.85;;
65092;SDS011;52025;50.288;2.794;2023-06-14T07:04:56;12.65;;;5.47;;
65092;SDS011;52025;50.288;2.794;2023-06-14T07:07:21;8.48;;;4.13;;
65092;SDS011;52025;50.288;2.794;2023-06-14T07:09:46;11.70;;;6.50;;
65092;SDS011;52025;50.288;2.794;2023-06-14T07:12:11;10.38;;;3.85;;
65092;SDS011;52025;50.288;2.794;2023-06-14T07:14:37;10.95;;;6.45;;
65092;SDS011;52025;50.288;2.794;2023-06-14T07:17:02;9.53;;;4.80;;
65092;SDS011;52025;50.288;2.794;2023-06-14T07:19:27;9.82;;;4.53;;
65092;SDS011;52025;50.288;2.794;2023-06-14T07:21:52;11.85;;;6.03;;
65092;SDS011;52025;50.288;2.794;2023-06-14T07:24:18;6.45;;;3.85;;
65092;SDS011;52025;50.288;2.794;2023-06-14T07:26:43;9.85;;;5.28;;
65092;SDS011;52025;50.288;2.794;2023-06-14T07:29:08;10.63;;;4.65;;
65092;SDS011;52025;50.288;2.794;2023-06-14T07:31:33;7.38;;;3.80;;
65092;SDS011;52025;50.288;2.794;2023-06-14T07:33:59;8.53;;;4.23;;
65092;SDS011;52025;50.288;2.794;2023-06-14T07:36:24;10.73;;;6.45;;
65092;SDS011;52025;50.288;2.794;2023-06-14T07:38:49;9.68;;;5.57;;
65092;SDS011;52025;50.288;2.794;2023-06-14T07:41:14;11.90;;;6.15;;
65092;SDS011;52025;50.288;2.794;2023-06-14T07:43:40;10.50;;;5.88;;
65092;SDS011;52025;50.288;2.794;2023-06-14T07:46:05;7.43;;;4.25;;
65092;SDS011;52025;50.288;2.794;2023-06-14T07:48:30;9.10;;;4.00;;
65092;SDS011;52025;50.288;2.794;2023-06-14T07:50:56;8.40;;;4.43;;
65092;SDS011;52025;50.288;2.794;2023-06-14T07:53:21;8.25;;;4.28;;
65092;SDS011;52025;50.288;2.794;2023-06-14T07:55:46;7.25;;;4.53;;
65092;SDS011;52025;50.288;2.794;2023-06-14T07:58:12;12.43;;;5.72;;
65092;SDS011;52025;50.288;2.794;2023-06-14T08:00:37;8.90;;;5.25;;
65092;SDS011;52025;50.288;2.794;2023-06-14T08:03:03;8.97;;;4.60;;
65092;SDS011;52025;50.288;2.794;2023-06-14T08:05:29;8.88;;;4.85;;
65092;SDS011;52025;50.288;2.794;2023-06-14T08:07:54;12.30;;;6.40;;
65092;SDS011;52025;50.288;2.794;2023-06-14T08:10:25;11.23;;;5.13;;
65092;SDS011;52025;50.288;2.794;2023-06-14T08:12:50;14.25;;;6.60;;
65092;SDS011;52025;50.288;2.794;2023-06-14T08:15:16;9.45;;;6.07;;
65092;SDS011;52025;50.288;2.794;2023-06-14T08:17:44;9.52;;;5.32;;
65092;SDS011;52025;50.288;2.794;2023-06-14T08:20:10;13.95;;;6.78;;
65092;SDS011;52025;50.288;2.794;2023-06-14T08:22:36;10.02;;;5.20;;
65092;SDS011;52025;50.288;2.794;2023-06-14T08:25:02;10.60;;;6.20;;
65092;SDS011;52025;50.288;2.794;2023-06-14T08:27:28;7.40;;;4.13;;
65092;SDS011;52025;50.288;2.794;2023-06-14T08:29:53;11.77;;;6.32;;
65092;SDS011;52025;50.288;2.794;2023-06-14T08:32:18;8.98;;;4.10;;
65092;SDS011;52025;50.288;2.794;2023-06-14T08:34:44;9.65;;;6.65;;
65092;SDS011;52025;50.288;2.794;2023-06-14T08:37:09;11.05;;;5.25;;
65092;SDS011;52025;50.288;2.794;2023-06-14T08:39:34;7.75;;;5.03;;
65092;SDS011;52025;50.288;2.794;2023-06-14T08:42:01;14.27;;;7.18;;
65092;SDS011;52025;50.288;2.794;2023-06-14T08:44:26;7.53;;;4.43;;
65092;SDS011;52025;50.288;2.794;2023-06-14T08:46:51;9.10;;;5.97;;
65092;SDS011;52025;50.288;2.794;2023-06-14T08:49:18;11.13;;;6.93;;
65092;SDS011;52025;50.288;2.794;2023-06-14T08:51:44;8.80;;;4.20;;
65092;SDS011;52025;50.288;2.794;2023-06-14T08:54:10;10.75;;;6.55;;
65092;SDS011;52025;50.288;2.794;2023-06-14T08:56:37;8.38;;;5.35;;
65092;SDS011;52025;50.288;2.794;2023-06-14T08:59:05;10.57;;;4.00;;
65092;SDS011;52025;50.288;2.794;2023-06-14T09:01:37;9.88;;;5.40;;
65092;SDS011;52025;50.288;2.794;2023-06-14T09:04:06;7.97;;;3.88;;
65092;SDS011;52025;50.288;2.794;2023-06-14T09:06:31;6.80;;;3.45;;
65092;SDS011;52025;50.288;2.794;2023-06-14T09:08:57;6.75;;;3.63;;
65092;SDS011;52025;50.288;2.794;2023-06-14T09:11:23;8.55;;;4.68;;
65092;SDS011;52025;50.288;2.794;2023-06-14T09:13:52;12.80;;;5.80;;
65092;SDS011;52025;50.288;2.794;2023-06-14T09:16:27;12.05;;;5.13;;
65092;SDS011;52025;50.288;2.794;2023-06-14T09:18:52;8.55;;;4.43;;
65092;SDS011;52025;50.288;2.794;2023-06-14T09:21:31;6.50;;;3.85;;
65092;SDS011;52025;50.288;2.794;2023-06-14T09:27:15;7.80;;;3.63;;
65092;SDS011;52025;50.288;2.794;2023-06-14T09:29:40;11.05;;;6.30;;
65092;SDS011;52025;50.288;2.794;2023-06-14T09:32:08;11.63;;;4.97;;
65092;SDS011;52025;50.288;2.794;2023-06-14T09:34:34;8.02;;;4.70;;
65092;SDS011;52025;50.288;2.794;2023-06-14T09:37:00;6.78;;;3.95;;
65092;SDS011;52025;50.288;2.794;2023-06-14T09:39:26;5.63;;;2.65;;
65092;SDS011;52025;50.288;2.794;2023-06-14T09:41:52;7.07;;;4.63;;
65092;SDS011;52025;50.288;2.794;2023-06-14T09:44:17;7.15;;;3.10;;
65092;SDS011;52025;50.288;2.794;2023-06-14T09:46:43;10.50;;;3.78;;
65092;SDS011;52025;50.288;2.794;2023-06-14T09:49:09;10.88;;;4.68;;
65092;SDS011;52025;50.288;2.794;2023-06-14T09:51:34;7.10;;;4.57;;
65092;SDS011;52025;50.288;2.794;2023-06-14T09:54:01;9.45;;;5.13;;
65092;SDS011;52025;50.288;2.794;2023-06-14T09:56:30;6.63;;;3.72;;
65092;SDS011;52025;50.288;2.794;2023-06-14T09:58:56;6.13;;;3.85;;
65092;SDS011;52025;50.288;2.794;2023-06-14T10:01:30;8.20;;;4.35;;
65092;SDS011;52025;50.288;2.794;2023-06-14T10:03:57;7.85;;;3.92;;
65092;SDS011;52025;50.288;2.794;2023-06-14T10:06:24;7.90;;;4.25;;
65092;SDS011;52025;50.288;2.794;2023-06-14T10:09:02;9.80;;;3.60;;
65092;SDS011;52025;50.288;2.794;2023-06-14T10:11:31;7.05;;;4.22;;
65092;SDS011;52025;50.288;2.794;2023-06-14T10:14:00;9.90;;;5.20;;
65092;SDS011;52025;50.288;2.794;2023-06-14T10:21:45;5.68;;;3.35;;
65092;SDS011;52025;50.288;2.794;2023-06-14T10:24:14;9.40;;;4.13;;
65092;SDS011;52025;50.288;2.794;2023-06-14T10:26:53;10.15;;;4.90;;
65092;SDS011;52025;50.288;2.794;2023-06-14T10:29:19;7.63;;;3.97;;
65092;SDS011;52025;50.288;2.794;2023-06-14T10:31:48;6.38;;;2.92;;
65092;SDS011;52025;50.288;2.794;2023-06-14T10:34:23;6.28;;;3.53;;
65092;SDS011;52025;50.288;2.794;2023-06-14T10:36:59;5.93;;;3.42;;
65092;SDS011;52025;50.288;2.794;2023-06-14T10:39:26;7.72;;;4.00;;
65092;SDS011;52025;50.288;2.794;2023-06-14T10:41:52;5.88;;;2.28;;
65092;SDS011;52025;50.288;2.794;2023-06-14T10:46:46;7.18;;;3.80;;
65092;SDS011;52025;50.288;2.794;2023-06-14T11:02:27;5.85;;;3.55;;
65092;SDS011;52025;50.288;2.794;2023-06-14T11:07:16;4.93;;;2.88;;
65092;SDS011;52025;50.288;2.794;2023-06-14T11:09:57;5.32;;;2.58;;
65092;SDS011;52025;50.288;2.794;2023-06-14T11:12:38;6.70;;;2.92;;
65092;SDS011;52025;50.288;2.794;2023-06-14T11:15:36;4.68;;;2.30;;
65092;SDS011;52025;50.288;2.794;2023-06-14T11:18:16;5.32;;;2.10;;
65092;SDS011;52025;50.288;2.794;2023-06-14T11:20:57;5.07;;;3.22;;
65092;SDS011;52025;50.288;2.794;2023-06-14T11:23:32;4.38;;;2.40;;
65092;SDS011;52025;50.288;2.794;2023-06-14T11:26:01;6.97;;;2.75;;
65092;SDS011;52025;50.288;2.794;2023-06-14T11:28:36;6.43;;;3.40;;
65092;SDS011;52025;50.288;2.794;2023-06-14T11:31:03;5.32;;;3.03;;
65092;SDS011;52025;50.288;2.794;2023-06-14T11:33:29;8.30;;;2.58;;
65092;SDS011;52025;50.288;2.794;2023-06-14T11:35:54;7.05;;;2.92;;
65092;SDS011;52025;50.288;2.794;2023-06-14T11:38:20;4.35;;;2.45;;
65092;SDS011;52025;50.288;2.794;2023-06-14T11:40:48;5.93;;;3.00;;
65092;SDS011;52025;50.288;2.794;2023-06-14T11:43:13;6.57;;;3.08;;
65092;SDS011;52025;50.288;2.794;2023-06-14T11:45:39;4.57;;;2.08;;
65092;SDS011;52025;50.288;2.794;2023-06-14T11:48:05;7.70;;;4.40;;
65092;SDS011;52025;50.288;2.794;2023-06-14T11:50:37;6.75;;;3.45;;
65092;SDS011;52025;50.288;2.794;2023-06-14T11:53:07;5.13;;;2.88;;
65092;SDS011;52025;50.288;2.794;2023-06-14T11:55:38;5.93;;;2.88;;
65092;SDS011;52025;50.288;2.794;2023-06-14T11:58:09;6.03;;;3.88;;
65092;SDS011;52025;50.288;2.794;2023-06-14T12:00:42;7.30;;;3.35;;
65092;SDS011;52025;50.288;2.794;2023-06-14T12:03:08;8.32;;;3.70;;
65092;SDS011;52025;50.288;2.794;2023-06-14T12:05:34;5.70;;;3.45;;
65092;SDS011;52025;50.288;2.794;2023-06-14T12:07:59;5.38;;;2.60;;
65092;SDS011;52025;50.288;2.794;2023-06-14T12:10:25;5.90;;;3.85;;
65092;SDS011;52025;50.288;2.794;2023-06-14T12:12:51;4.57;;;2.95;;
65092;SDS011;52025;50.288;2.794;2023-06-14T12:15:16;9.40;;;4.32;;
65092;SDS011;52025;50.288;2.794;2023-06-14T12:17:41;8.20;;;3.80;;
65092;SDS011;52025;50.288;2.794;2023-06-14T12:20:16;6.90;;;3.70;;
65092;SDS011;52025;50.288;2.794;2023-06-14T12:22:54;5.10;;;3.25;;
65092;SDS011;52025;50.288;2.794;2023-06-14T12:25:32;4.78;;;2.80;;
65092;SDS011;52025;50.288;2.794;2023-06-14T12:28:03;4.88;;;2.83;;
65092;SDS011;52025;50.288;2.794;2023-06-14T12:30:31;10.75;;;3.90;;
65092;SDS011;52025;50.288;2.794;2023-06-14T12:32:57;5.25;;;2.97;;
65092;SDS011;52025;50.288;2.794;2023-06-14T12:35:24;5.05;;;3.25;;
65092;SDS011;52025;50.288;2.794;2023-06-14T12:37:50;5.03;;;3.08;;
65092;SDS011;52025;50.288;2.794;2023-06-14T12:40:15;4.07;;;1.85;;
65092;SDS011;52025;50.288;2.794;2023-06-14T12:42:41;4.63;;;2.63;;
65092;SDS011;52025;50.288;2.794;2023-06-14T12:45:06;6.88;;;2.28;;
65092;SDS011;52025;50.288;2.794;2023-06-14T12:47:34;5.13;;;3.15;;
65092;SDS011;52025;50.288;2.794;2023-06-14T12:50:02;5.38;;;3.17;;
65092;SDS011;52025;50.288;2.794;2023-06-14T12:52:27;4.13;;;1.85;;
65092;SDS011;52025;50.288;2.794;2023-06-14T12:54:55;6.63;;;3.63;;
65092;SDS011;52025;50.288;2.794;2023-06-14T12:57:20;5.57;;;2.47;;
65092;SDS011;52025;50.288;2.794;2023-06-14T12:59:45;5.38;;;2.97;;
65092;SDS011;52025;50.288;2.794;2023-06-14T13:02:15;5.70;;;3.80;;
65092;SDS011;52025;50.288;2.794;2023-06-14T13:04:42;5.15;;;2.58;;
65092;SDS011;52025;50.288;2.794;2023-06-14T13:07:08;3.50;;;1.95;;
65092;SDS011;52025;50.288;2.794;2023-06-14T13:09:33;4.30;;;2.70;;
65092;SDS011;52025;50.288;2.794;2023-06-14T13:11:59;4.53;;;2.75;;
65092;SDS011;52025;50.288;2.794;2023-06-14T13:14:29;4.95;;;2.35;;
65092;SDS011;52025;50.288;2.794;2023-06-14T13:16:54;5.55;;;3.05;;
65092;SDS011;52025;50.288;2.794;2023-06-14T13:19:22;4.90;;;2.42;;
65092;SDS011;52025;50.288;2.794;2023-06-14T13:21:50;7.93;;;3.88;;
65092;SDS011;52025;50.288;2.794;2023-06-14T13:24:17;6.35;;;2.95;;
65092;SDS011;52025;50.288;2.794;2023-06-14T13:26:42;4.55;;;2.55;;
65092;SDS011;52025;50.288;2.794;2023-06-14T13:29:08;7.32;;;4.10;;
65092;SDS011;52025;50.288;2.794;2023-06-14T13:31:33;7.28;;;3.60;;
65092;SDS011;52025;50.288;2.794;2023-06-14T13:33:59;5.45;;;3.00;;
65092;SDS011;52025;50.288;2.794;2023-06-14T13:36:27;4.13;;;2.47;;
65092;SDS011;52025;50.288;2.794;2023-06-14T13:38:52;5.95;;;3.70;;
65092;SDS011;52025;50.288;2.794;2023-06-14T13:41:27;5.75;;;2.33;;
65092;SDS011;52025;50.288;2.794;2023-06-14T13:44:06;4.85;;;2.55;;
65092;SDS011;52025;50.288;2.794;2023-06-14T13:46:33;3.88;;;2.15;;
65092;SDS011;52025;50.288;2.794;2023-06-14T13:48:59;3.80;;;2.40;;
65092;SDS011;52025;50.288;2.794;2023-06-14T13:51:26;4.18;;;2.60;;
65092;SDS011;52025;50.288;2.794;2023-06-14T13:53:54;5.72;;;3.17;;
65092;SDS011;52025;50.288;2.794;2023-06-14T13:56:23;7.68;;;3.90;;
65092;SDS011;52025;50.288;2.794;2023-06-14T13:58:50;5.53;;;3.28;;
65092;SDS011;52025;50.288;2.794;2023-06-14T14:01:16;9.75;;;3.50;;
65092;SDS011;52025;50.288;2.794;2023-06-14T14:03:44;4.72;;;2.92;;
65092;SDS011;52025;50.288;2.794;2023-06-14T14:06:11;5.38;;;3.28;;
65092;SDS011;52025;50.288;2.794;2023-06-14T14:08:45;5.20;;;2.90;;
65092;SDS011;52025;50.288;2.794;2023-06-14T14:11:19;6.05;;;3.22;;
65092;SDS011;52025;50.288;2.794;2023-06-14T14:13:52;4.68;;;2.80;;
65092;SDS011;52025;50.288;2.794;2023-06-14T14:16:26;5.90;;;3.67;;
65092;SDS011;52025;50.288;2.794;2023-06-14T14:18:51;4.07;;;2.38;;
65092;SDS011;52025;50.288;2.794;2023-06-14T14:21:21;8.23;;;4.07;;
65092;SDS011;52025;50.288;2.794;2023-06-14T14:23:48;5.22;;;2.35;;
65092;SDS011;52025;50.288;2.794;2023-06-14T14:26:14;6.25;;;3.28;;
65092;SDS011;52025;50.288;2.794;2023-06-14T14:28:53;5.97;;;3.97;;
65092;SDS011;52025;50.288;2.794;2023-06-14T14:31:21;5.88;;;3.20;;
65092;SDS011;52025;50.288;2.794;2023-06-14T14:34:07;3.78;;;1.95;;
65092;SDS011;52025;50.288;2.794;2023-06-14T14:36:48;5.45;;;3.08;;
65092;SDS011;52025;50.288;2.794;2023-06-14T14:39:13;7.85;;;4.40;;
65092;SDS011;52025;50.288;2.794;2023-06-14T14:41:39;7.53;;;4.00;;
65092;SDS011;52025;50.288;2.794;2023-06-14T14:44:06;5.88;;;3.22;;
65092;SDS011;52025;50.288;2.794;2023-06-14T14:46:37;5.18;;;2.70;;
65092;SDS011;52025;50.288;2.794;2023-06-14T14:49:16;5.18;;;2.85;;
65092;SDS011;52025;50.288;2.794;2023-06-14T14:51:44;5.53;;;3.28;;
65092;SDS011;52025;50.288;2.794;2023-06-14T14:54:15;3.20;;;1.95;;
65092;SDS011;52025;50.288;2.794;2023-06-14T14:57:01;3.53;;;1.92;;
65092;SDS011;52025;50.288;2.794;2023-06-14T14:59:34;4.53;;;2.88;;
65092;SDS011;52025;50.288;2.794;2023-06-14T15:02:37;6.07;;;3.40;;
65092;SDS011;52025;50.288;2.794;2023-06-14T15:05:11;4.63;;;2.85;;
65092;SDS011;52025;50.288;2.794;2023-06-14T15:07:42;4.82;;;3.00;;
65092;SDS011;52025;50.288;2.794;2023-06-14T15:10:13;7.68;;;3.60;;
65092;SDS011;52025;50.288;2.794;2023-06-14T15:12:47;5.38;;;3.17;;
65092;SDS011;52025;50.288;2.794;2023-06-14T15:15:29;5.00;;;2.72;;
65092;SDS011;52025;50.288;2.794;2023-06-14T15:18:05;5.45;;;2.75;;
65092;SDS011;52025;50.288;2.794;2023-06-14T15:20:32;6.00;;;2.80;;
65092;SDS011;52025;50.288;2.794;2023-06-14T15:23:08;3.78;;;2.03;;
65092;SDS011;52025;50.288;2.794;2023-06-14T15:25:50;2.92;;;1.73;;
65092;SDS011;52025;50.288;2.794;2023-06-14T15:28:16;5.93;;;3.55;;
65092;SDS011;52025;50.288;2.794;2023-06-14T15:30:42;5.72;;;3.08;;
65092;SDS011;52025;50.288;2.794;2023-06-14T15:33:10;4.40;;;2.85;;
65092;SDS011;52025;50.288;2.794;2023-06-14T15:35:35;5.82;;;2.50;;
65092;SDS011;52025;50.288;2.794;2023-06-14T15:38:00;6.15;;;4.03;;
65092;SDS011;52025;50.288;2.794;2023-06-14T15:40:26;6.47;;;3.65;;
65092;SDS011;52025;50.288;2.794;2023-06-14T15:42:53;3.33;;;1.90;;
65092;SDS011;52025;50.288;2.794;2023-06-14T15:45:19;5.57;;;2.67;;
65092;SDS011;52025;50.288;2.794;2023-06-14T15:47:44;4.97;;;3.13;;
65092;SDS011;52025;50.288;2.794;2023-06-14T15:50:09;8.25;;;3.30;;
65092;SDS011;52025;50.288;2.794;2023-06-14T15:52:35;6.97;;;3.30;;
65092;SDS011;52025;50.288;2.794;2023-06-14T15:55:00;6.30;;;3.13;;
65092;SDS011;52025;50.288;2.794;2023-06-14T15:57:26;5.78;;;3.03;;
65092;SDS011;52025;50.288;2.794;2023-06-14T15:59:51;5.43;;;3.22;;
65092;SDS011;52025;50.288;2.794;2023-06-14T16:02:17;4.25;;;2.55;;
65092;SDS011;52025;50.288;2.794;2023-06-14T16:04:42;7.03;;;3.65;;
65092;SDS011;52025;50.288;2.794;2023-06-14T16:07:07;6.35;;;2.78;;
65092;SDS011;52025;50.288;2.794;2023-06-14T16:09:33;5.07;;;3.83;;
65092;SDS011;52025;50.288;2.794;2023-06-14T16:11:58;4.32;;;2.95;;
65092;SDS011;52025;50.288;2.794;2023-06-14T16:14:32;6.22;;;3.20;;
65092;SDS011;52025;50.288;2.794;2023-06-14T16:16:57;7.22;;;3.53;;
65092;SDS011;52025;50.288;2.794;2023-06-14T16:19:25;2.58;;;1.60;;
65092;SDS011;52025;50.288;2.794;2023-06-14T16:21:50;7.22;;;2.47;;
65092;SDS011;52025;50.288;2.794;2023-06-14T16:24:36;7.97;;;3.78;;
65092;SDS011;52025;50.288;2.794;2023-06-14T16:27:01;5.55;;;3.50;;
65092;SDS011;52025;50.288;2.794;2023-06-14T16:29:27;6.05;;;3.20;;
65092;SDS011;52025;50.288;2.794;2023-06-14T16:31:52;4.30;;;2.85;;
65092;SDS011;52025;50.288;2.794;2023-06-14T16:34:17;7.80;;;3.60;;
65092;SDS011;52025;50.288;2.794;2023-06-14T16:36:43;4.05;;;2.05;;
65092;SDS011;52025;50.288;2.794;2023-06-14T16:39:08;2.78;;;1.60;;
65092;SDS011;52025;50.288;2.794;2023-06-14T16:41:33;6.03;;;3.53;;
65092;SDS011;52025;50.288;2.794;2023-06-14T16:43:59;5.82;;;3.28;;
65092;SDS011;52025;50.288;2.794;2023-06-14T16:46:31;7.47;;;3.20;;
65092;SDS011;52025;50.288;2.794;2023-06-14T16:48:57;4.65;;;2.85;;
65092;SDS011;52025;50.288;2.794;2023-06-14T16:51:22;5.40;;;2.92;;
65092;SDS011;52025;50.288;2.794;2023-06-14T16:53:48;5.85;;;3.42;;
65092;SDS011;52025;50.288;2.794;2023-06-14T16:56:13;7.15;;;3.50;;
65092;SDS011;52025;50.288;2.794;2023-06-14T16:58:38;6.78;;;3.67;;
65092;SDS011;52025;50.288;2.794;2023-06-14T17:01:03;8.18;;;3.83;;
65092;SDS011;52025;50.288;2.794;2023-06-14T17:03:29;6.43;;;3.60;;
65092;SDS011;52025;50.288;2.794;2023-06-14T17:05:56;5.57;;;3.70;;
65092;SDS011;52025;50.288;2.794;2023-06-14T17:08:22;5.68;;;3.20;;
65092;SDS011;52025;50.288;2.794;2023-06-14T17:10:48;8.35;;;4.43;;
65092;SDS011;52025;50.288;2.794;2023-06-14T17:13:14;5.53;;;3.17;;
65092;SDS011;52025;50.288;2.794;2023-06-14T17:15:39;6.35;;;3.63;;
65092;SDS011;52025;50.288;2.794;2023-06-14T17:18:04;8.55;;;4.15;;
65092;SDS011;52025;50.288;2.794;2023-06-14T17:20:32;6.28;;;3.10;;
65092;SDS011;52025;50.288;2.794;2023-06-14T17:22:57;4.10;;;2.22;;
65092;SDS011;52025;50.288;2.794;2023-06-14T17:25:25;8.63;;;4.30;;
65092;SDS011;52025;50.288;2.794;2023-06-14T17:30:28;3.63;;;2.25;;
65092;SDS011;52025;50.288;2.794;2023-06-14T17:33:07;3.70;;;1.95;;
65092;SDS011;52025;50.288;2.794;2023-06-14T17:35:50;6.93;;;2.78;;
65092;SDS011;52025;50.288;2.794;2023-06-14T18:02:39;6.63;;;3.30;;
65092;SDS011;52025;50.288;2.794;2023-06-14T18:08:38;6.53;;;3.20;;
65092;SDS011;52025;50.288;2.794;2023-06-14T18:11:15;4.63;;;2.47;;
65092;SDS011;52025;50.288;2.794;2023-06-14T18:13:44;6.40;;;3.40;;
65092;SDS011;52025;50.288;2.794;2023-06-14T18:16:12;7.28;;;3.08;;
65092;SDS011;52025;50.288;2.794;2023-06-14T18:18:46;6.32;;;3.05;;
65092;SDS011;52025;50.288;2.794;2023-06-14T18:21:13;6.18;;;2.85;;
65092;SDS011;52025;50.288;2.794;2023-06-14T18:23:46;4.43;;;2.47;;
65092;SDS011;52025;50.288;2.794;2023-06-14T18:26:19;8.65;;;3.20;;
65092;SDS011;52025;50.288;2.794;2023-06-14T18:29:13;4.13;;;2.38;;
65092;SDS011;52025;50.288;2.794;2023-06-14T18:31:39;5.25;;;2.80;;
65092;SDS011;52025;50.288;2.794;2023-06-14T18:34:05;4.72;;;2.85;;
65092;SDS011;52025;50.288;2.794;2023-06-14T18:36:31;4.80;;;2.88;;
65092;SDS011;52025;50.288;2.794;2023-06-14T18:39:11;6.22;;;3.20;;
65092;SDS011;52025;50.288;2.794;2023-06-14T18:41:39;5.68;;;2.42;;
65092;SDS011;52025;50.288;2.794;2023-06-14T18:44:35;5.22;;;2.75;;
65092;SDS011;52025;50.288;2.794;2023-06-14T18:47:08;7.90;;;3.33;;
65092;SDS011;52025;50.288;2.794;2023-06-14T18:49:43;6.40;;;3.25;;
65092;SDS011;52025;50.288;2.794;2023-06-14T18:52:14;5.75;;;3.30;;
65092;SDS011;52025;50.288;2.794;2023-06-14T18:54:56;5.85;;;3.47;;
65092;SDS011;52025;50.288;2.794;2023-06-14T18:57:37;5.63;;;3.20;;
65092;SDS011;52025;50.288;2.794;2023-06-14T19:00:05;5.75;;;3.55;;
65092;SDS011;52025;50.288;2.794;2023-06-14T19:02:36;6.43;;;2.88;;
65092;SDS011;52025;50.288;2.794;2023-06-14T19:14:42;4.30;;;2.63;;
65092;SDS011;52025;50.288;2.794;2023-06-14T19:21:00;5.15;;;3.17;;
65092;SDS011;52025;50.288;2.794;2023-06-14T19:23:28;4.85;;;3.25;;
65092;SDS011;52025;50.288;2.794;2023-06-14T19:31:05;9.80;;;3.13;;
65092;SDS011;52025;50.288;2.794;2023-06-14T19:33:44;5.10;;;2.92;;
65092;SDS011;52025;50.288;2.794;2023-06-14T19:36:26;6.32;;;3.10;;
65092;SDS011;52025;50.288;2.794;2023-06-14T19:39:14;7.28;;;2.85;;
65092;SDS011;52025;50.288;2.794;2023-06-14T19:44:53;5.38;;;2.67;;
65092;SDS011;52025;50.288;2.794;2023-06-14T20:03:57;4.95;;;2.65;;
65092;SDS011;52025;50.288;2.794;2023-06-14T20:06:29;6.38;;;2.67;;
65092;SDS011;52025;50.288;2.794;2023-06-14T20:09:18;5.20;;;2.13;;
65092;SDS011;52025;50.288;2.794;2023-06-14T20:18:07;6.47;;;2.03;;
65092;SDS011;52025;50.288;2.794;2023-06-14T20:30:51;6.50;;;2.30;;
65092;SDS011;52025;50.288;2.794;2023-06-14T20:42:45;5.18;;;2.05;;
65092;SDS011;52025;50.288;2.794;2023-06-14T20:48:33;4.05;;;2.03;;
65092;SDS011;52025;50.288;2.794;2023-06-14T21:29:31;4.22;;;1.73;;
